Terminal Aerodrome Forecast
Issued by NWS St Louis, MO

Home | Current Version | Previous Version | Text Only | Print | Product List | Glossary On
Versions: 1 2 3 4 5 6 7 8 9 10 11 12 13 14 15 16 17
000
FTUS43 KLSX 271100
TAFCOU
TAF
KCOU 271127Z 2712/2812 35010KT P6SM BKN050
     FM271800 35010KT P6SM SKC
     FM280000 VRB05KT P6SM BKN150
     FM280300 09005KT P6SM SCT050 BKN100
     FM280900 11005KT 3SM -SN BKN025=

USA.gov is the U.S. government's official web portal to all federal, state and local government web resources and services.